FPO26L LJLJ-LFPG
Flight info
| Callsign | FPO26L |
|---|---|
| Flight time | N/A |
| Altitude | 34000 |
| Route | GIMIX DCT UMVEG DCT KPT L856 RAVED Y112 HOC/N0458F350 DCT MOROK DCT PENDU DCT JAVVU DCT GIVRI/N0457F340 DCT TINIL |
| Aircraft | B738/M-SDE2E3FGHIRWXY/LB1 |
Departure
| Time | 2026-04-22 19:20 |
|---|---|
| Airport | Ljubljana Jože Pučnik Airport (LJLJ) |
Arrival
| Time | N/A |
|---|---|
| Airport | Charles de Gaulle International Airport (LFPG) |
| Time | Latitude | Longitude | Altitude | Speed | Heading |
|---|---|---|---|---|---|
| 2026-04-22 19:07 | 46.23289 | 14.45013 | 1270 ft | 0 kts | 35° |
| 2026-04-22 19:11 | 46.23285 | 14.45009 | 1270 ft | 4 kts | 34° |
| 2026-04-22 19:11 | 46.23262 | 14.44989 | 1271 ft | 4 kts | 26° |
| 2026-04-22 19:11 | 46.23237 | 14.44975 | 1270 ft | 4 kts | 9° |
| 2026-04-22 19:11 | 46.23213 | 14.44976 | 1269 ft | 4 kts | 322° |
| 2026-04-22 19:12 | 46.23206 | 14.44986 | 1272 ft | 1 kts | 302° |
| 2026-04-22 19:12 | 46.23205 | 14.44990 | 1272 ft | 1 kts | 302° |
| 2026-04-22 19:13 | 46.23204 | 14.44990 | 1272 ft | 0 kts | 302° |
| 2026-04-22 19:15 | 46.23205 | 14.44990 | 1272 ft | 0 kts | 302° |
| 2026-04-22 19:15 | 46.23212 | 14.44967 | 1269 ft | 6 kts | 289° |
| 2026-04-22 19:15 | 46.23174 | 14.44885 | 1270 ft | 12 kts | 205° |
| 2026-04-22 19:15 | 46.23094 | 14.44883 | 1269 ft | 8 kts | 207° |
| 2026-04-22 19:16 | 46.23082 | 14.44861 | 1275 ft | 2 kts | 263° |
| 2026-04-22 19:16 | 46.23084 | 14.44838 | 1269 ft | 3 kts | 292° |
| 2026-04-22 19:16 | 46.23101 | 14.44795 | 1271 ft | 7 kts | 300° |
| 2026-04-22 19:16 | 46.23135 | 14.44724 | 1272 ft | 10 kts | 305° |
| 2026-04-22 19:17 | 46.23181 | 14.44635 | 1274 ft | 12 kts | 304° |
| 2026-04-22 19:17 | 46.23237 | 14.44530 | 1277 ft | 14 kts | 307° |
| 2026-04-22 19:17 | 46.23295 | 14.44409 | 1280 ft | 15 kts | 303° |
| 2026-04-22 19:17 | 46.23353 | 14.44293 | 1282 ft | 14 kts | 306° |
| 2026-04-22 19:18 | 46.23395 | 14.44173 | 1285 ft | 13 kts | 272° |
| 2026-04-22 19:18 | 46.23378 | 14.44095 | 1289 ft | 4 kts | 209° |
| 2026-04-22 19:18 | 46.23343 | 14.44081 | 1289 ft | 11 kts | 188° |
| 2026-04-22 19:18 | 46.23210 | 14.44142 | 1286 ft | 31 kts | 137° |
| 2026-04-22 19:19 | 46.22984 | 14.44566 | 1272 ft | 85 kts | 126° |
| 2026-04-22 19:19 | 46.22503 | 14.45507 | 1252 ft | 146 kts | 127° |
| 2026-04-22 19:19 | 46.21799 | 14.46886 | 1344 ft | 189 kts | 126° |
| 2026-04-22 19:19 | 46.20990 | 14.48507 | 1798 ft | 204 kts | 125° |
| 2026-04-22 19:20 | 46.20104 | 14.50245 | 2102 ft | 225 kts | 126° |
| 2026-04-22 19:20 | 46.19142 | 14.52095 | 2602 ft | 234 kts | 126° |
| 2026-04-22 19:20 | 46.18152 | 14.54004 | 3065 ft | 247 kts | 125° |
| 2026-04-22 19:20 | 46.17096 | 14.56050 | 3598 ft | 259 kts | 123° |
| 2026-04-22 19:21 | 46.16012 | 14.58150 | 4435 ft | 262 kts | 122° |
| 2026-04-22 19:21 | 46.14698 | 14.60015 | 5210 ft | 276 kts | 148° |
| 2026-04-22 19:21 | 46.12798 | 14.60617 | 6018 ft | 289 kts | 183° |
| 2026-04-22 19:21 | 46.10882 | 14.59707 | 6770 ft | 296 kts | 213° |
| 2026-04-22 19:22 | 46.09392 | 14.57681 | 7523 ft | 296 kts | 239° |
| 2026-04-22 19:22 | 46.08635 | 14.54984 | 8307 ft | 290 kts | 267° |
| 2026-04-22 19:22 | 46.08869 | 14.52191 | 9083 ft | 279 kts | 300° |
| 2026-04-22 19:22 | 46.09913 | 14.49934 | 9889 ft | 274 kts | 313° |
| 2026-04-22 19:23 | 46.11101 | 14.47757 | 10548 ft | 281 kts | 313° |
| 2026-04-22 19:23 | 46.12377 | 14.45469 | 10740 ft | 304 kts | 313° |
| 2026-04-22 19:23 | 46.13749 | 14.43010 | 10899 ft | 326 kts | 313° |
| 2026-04-22 19:23 | 46.15207 | 14.40377 | 11165 ft | 343 kts | 312° |
| 2026-04-22 19:24 | 46.16707 | 14.37645 | 11720 ft | 350 kts | 312° |
| 2026-04-22 19:24 | 46.18220 | 14.34872 | 12398 ft | 354 kts | 312° |
| 2026-04-22 19:24 | 46.19749 | 14.32060 | 13100 ft | 358 kts | 312° |
| 2026-04-22 19:24 | 46.21293 | 14.29215 | 13786 ft | 362 kts | 312° |
| 2026-04-22 19:25 | 46.22855 | 14.26331 | 14446 ft | 367 kts | 311° |
| 2026-04-22 19:25 | 46.24431 | 14.23418 | 15133 ft | 369 kts | 312° |
| 2026-04-22 19:25 | 46.26021 | 14.20475 | 15831 ft | 373 kts | 311° |
| 2026-04-22 19:25 | 46.27624 | 14.17505 | 16530 ft | 376 kts | 311° |
| 2026-04-22 19:26 | 46.29242 | 14.14506 | 17232 ft | 379 kts | 311° |
| 2026-04-22 19:26 | 46.30873 | 14.11480 | 17863 ft | 384 kts | 311° |
| 2026-04-22 19:26 | 46.32524 | 14.08413 | 18516 ft | 388 kts | 311° |
| 2026-04-22 19:26 | 46.34190 | 14.05314 | 19092 ft | 391 kts | 311° |
| 2026-04-22 19:27 | 46.35841 | 14.02240 | 19695 ft | 393 kts | 311° |
| 2026-04-22 19:27 | 46.37527 | 13.99096 | 20294 ft | 396 kts | 311° |